Terminal Aerodrome Forecast
Issued by NWS

Home | Current Version | Previous Version | Text Only | Print | Product List | Glossary On
Versions: 1 2 3 4 5 6 7 8 9 10 11 12 13 14 15 16 17 18 19 20 21 22 23 24 25 26 27
000
FTUS44 KHGX 271738
TAFCXO
TAF
KCXO 271738Z 2718/2818 VRB05KT P6SM VCTS SCT007 BKN040CB
      TEMPO 2718/2720 VRB13G25KT 3SM TSRA BKN007 BKN020CB
     FM272100 17008KT P6SM BKN050 BKN120
     FM280000 17006KT P6SM SCT250
     FM281000 VRB04KT 6SM BR SCT020
     FM281500 20006KT P6SM VCSH SCT020 BKN040=

USA.gov is the U.S. government's official web portal to all federal, state and local government web resources and services.